Creole, Louisiana
Current Conditions -  °F | °C
As of 7:55 PM on Monday 24 Nov 2014 (Local Time) from KCVW Reporting Station
Clear Clear  
Wind Chill: 57°   Ceiling: Unl
Heat Index: 57°   Visibility: 10mi
Dew Point: 39°   Wind: 9mph
Humidity: 51%   Direction: 360°N
Pressure: 30.1"   Gusts: NA
Location:  29.8°N, 93.11°W
Report Text: KCVW 250155Z AUTO 36008KT 10SM CLR 14/04 A3010 RMK A01
Loading
Personal Weather Stations






























Interactive Weather Map New forecast layout! Learn more

10-Day Weather Forecast

Advertisements
Track Severe Weather on mobile